createdAt,value
2022-08-07T00:00:56.839Z,61.57
2022-08-07T00:06:01.212Z,59.94
2022-08-07T00:11:04.874Z,55.79
2022-08-07T00:16:07.612Z,55.82
2022-08-07T00:21:56.593Z,58.50
2022-08-07T00:26:49.444Z,57.57
2022-08-07T00:31:53.626Z,65.69
2022-08-07T00:36:55.844Z,66.43
2022-08-07T00:42:01.384Z,64.92
2022-08-07T00:47:06.447Z,64.11
2022-08-07T00:52:17.581Z,63.50
2022-08-07T00:57:23.081Z,62.96
2022-08-07T01:02:28.868Z,62.39
2022-08-07T01:07:31.713Z,62.02
2022-08-07T01:12:33.690Z,62.24
2022-08-07T01:17:35.585Z,61.72
2022-08-07T01:22:38.182Z,61.59
2022-08-07T01:27:55.602Z,61.93
2022-08-07T01:32:58.322Z,61.63
2022-08-07T01:37:59.587Z,62.27
2022-08-07T01:43:00.836Z,62.27
2022-08-07T01:48:19.976Z,62.38
2022-08-07T01:54:08.583Z,62.76
2022-08-07T01:58:53.544Z,61.54
2022-08-07T02:04:02.849Z,57.04
2022-08-07T02:09:09.108Z,57.41
2022-08-07T02:14:36.102Z,58.77
2022-08-07T02:20:07.817Z,59.52
2022-08-07T02:25:00.054Z,68.62
2022-08-07T02:30:07.064Z,65.64
2022-08-07T02:35:10.304Z,60.86
2022-08-07T02:40:30.742Z,54.92
2022-08-07T02:46:00.659Z,56.17
2022-08-07T02:51:06.374Z,57.95
2022-08-07T02:56:21.276Z,59.51
2022-08-07T03:01:35.370Z,68.39
2022-08-07T03:06:38.991Z,65.60
2022-08-07T03:11:52.206Z,60.97
2022-08-07T03:16:59.280Z,56.87
2022-08-07T03:22:01.578Z,56.58
2022-08-07T03:27:05.503Z,56.12
2022-08-07T03:32:13.019Z,59.60
2022-08-07T03:37:19.048Z,67.31
2022-08-07T03:42:29.559Z,65.10
2022-08-07T03:47:47.931Z,62.71
2022-08-07T03:52:55.046Z,58.06
2022-08-07T03:58:32.482Z,56.43
2022-08-07T04:03:19.023Z,58.20
2022-08-07T04:08:23.210Z,59.77
2022-08-07T04:13:27.574Z,66.90
2022-08-07T04:18:58.695Z,66.20
2022-08-07T04:24:06.008Z,61.29
2022-08-07T04:29:10.992Z,56.44
2022-08-07T04:34:16.602Z,56.66
2022-08-07T04:39:21.845Z,58.31
2022-08-07T04:44:27.008Z,60.09
2022-08-07T04:50:04.526Z,67.13
2022-08-07T04:58:07.319Z,64.53
2022-08-07T05:00:46.898Z,60.58
2022-08-07T05:05:58.147Z,59.10
2022-08-07T05:11:19.483Z,54.75
2022-08-07T05:16:22.134Z,56.42
2022-08-07T05:22:00.220Z,58.53
2022-08-07T05:26:54.236Z,60.98
2022-08-07T05:31:56.761Z,61.23
2022-08-07T05:36:58.683Z,46.21
2022-08-07T05:42:05.368Z,40.47
2022-08-07T05:47:17.872Z,36.49
2022-08-07T05:52:29.769Z,33.12
2022-08-07T05:57:34.640Z,31.58
2022-08-07T06:02:39.786Z,30.70
2022-08-07T06:08:14.504Z,29.21
2022-08-07T06:13:05.236Z,28.63
2022-08-07T06:18:15.852Z,28.28
2022-08-07T06:23:46.850Z,27.67
2022-08-07T06:28:59.333Z,27.54
2022-08-07T06:34:02.475Z,27.68
2022-08-07T06:40:16.544Z,27.51
2022-08-07T06:44:26.577Z,27.59
2022-08-07T06:49:35.603Z,27.78
2022-08-07T06:55:33.881Z,27.38
2022-08-07T07:00:18.302Z,27.35
2022-08-07T07:06:04.860Z,27.27
2022-08-07T07:10:47.267Z,27.46
2022-08-07T07:16:02.332Z,27.55
2022-08-07T07:21:19.232Z,28.50
2022-08-07T07:26:34.473Z,28.35
2022-08-07T07:31:44.497Z,28.50
2022-08-07T07:36:52.656Z,28.18
2022-08-07T07:42:08.896Z,28.36
2022-08-07T07:47:23.069Z,28.03
2022-08-07T07:52:26.277Z,28.48
2022-08-07T07:57:43.900Z,28.94
2022-08-07T08:03:04.816Z,29.20
2022-08-07T08:08:10.116Z,29.47
2022-08-07T08:13:53.424Z,30.24
2022-08-07T08:18:56.007Z,31.25
2022-08-07T08:24:36.265Z,32.43
2022-08-07T08:29:54.703Z,33.03
2022-08-07T08:34:58.448Z,33.72
2022-08-07T08:40:01.166Z,34.38
2022-08-07T08:45:41.546Z,33.92
2022-08-07T08:51:03.316Z,34.69
2022-08-07T08:56:24.675Z,35.26
2022-08-07T09:01:46.486Z,34.69
2022-08-07T09:07:12.273Z,35.17
2022-08-07T09:12:33.106Z,34.73
2022-08-07T09:18:16.745Z,34.13
2022-08-07T09:24:28.801Z,34.20
2022-08-07T09:30:05.754Z,34.19
2022-08-07T09:34:53.958Z,33.57
2022-08-07T09:40:05.780Z,33.33
2022-08-07T09:47:20.048Z,33.33
2022-08-07T09:50:52.414Z,33.44
2022-08-07T09:56:34.138Z,33.15
2022-08-07T10:02:16.715Z,32.51
2022-08-07T10:07:55.362Z,32.54
2022-08-07T10:14:01.378Z,32.92
2022-08-07T10:19:21.611Z,33.10
2022-08-07T10:25:00.052Z,33.08
2022-08-07T10:30:33.009Z,32.54
2022-08-07T10:36:05.181Z,32.12
2022-08-07T10:41:47.210Z,32.57
2022-08-07T10:46:53.679Z,32.57
2022-08-07T10:52:22.523Z,32.75
2022-08-07T10:58:12.215Z,33.10
2022-08-07T11:03:37.923Z,33.55
2022-08-07T11:08:56.900Z,33.17
2022-08-07T11:14:46.136Z,33.49
2022-08-07T11:19:55.218Z,34.02
2022-08-07T11:25:15.237Z,33.46
2022-08-07T11:30:19.998Z,33.14
2022-08-07T11:36:05.810Z,31.80
2022-08-07T11:41:18.238Z,31.34
2022-08-07T11:47:03.978Z,31.45
2022-08-07T11:52:35.819Z,31.55
2022-08-07T11:58:16.703Z,32.16
2022-08-07T12:03:59.707Z,33.46
2022-08-07T12:09:16.412Z,34.09
2022-08-07T12:14:21.178Z,34.13
2022-08-07T12:19:25.175Z,34.18
2022-08-07T12:25:08.057Z,33.95
2022-08-07T12:30:10.277Z,34.25
2022-08-07T12:35:15.287Z,35.94
2022-08-07T12:40:46.414Z,36.66
2022-08-07T12:45:52.260Z,37.32
2022-08-07T12:51:12.868Z,38.25
2022-08-07T12:56:26.629Z,38.59
2022-08-07T13:01:50.114Z,38.38
2022-08-07T13:08:13.663Z,38.53
2022-08-07T13:13:01.597Z,38.91
2022-08-07T13:18:26.510Z,39.43
2022-08-07T13:24:01.537Z,38.98
2022-08-07T13:29:06.754Z,38.44
2022-08-07T13:34:32.595Z,37.89
2022-08-07T13:40:34.847Z,37.23
2022-08-07T13:46:12.195Z,36.97
2022-08-07T13:51:00.583Z,36.91
2022-08-07T13:56:04.666Z,36.85
2022-08-07T14:01:15.795Z,36.86
2022-08-07T14:06:24.743Z,36.94
2022-08-07T14:11:53.398Z,37.13
2022-08-07T14:17:32.067Z,37.21
2022-08-07T14:22:34.616Z,36.89
2022-08-07T14:28:11.750Z,36.52
2022-08-07T14:33:04.660Z,36.70
2022-08-07T14:38:08.497Z,37.07
2022-08-07T14:43:58.070Z,37.63
2022-08-07T14:48:56.578Z,37.88
2022-08-07T14:54:30.234Z,38.31
2022-08-07T15:00:05.354Z,38.22
2022-08-07T15:04:53.292Z,38.30
2022-08-07T15:10:01.332Z,38.22
2022-08-07T15:15:22.235Z,38.38
2022-08-07T15:25:55.936Z,38.59
2022-08-07T15:31:05.556Z,39.10
2022-08-07T15:36:08.711Z,39.76
2022-08-07T15:41:24.446Z,40.09
2022-08-07T15:46:49.951Z,40.10
2022-08-07T15:57:00.378Z,41.14
2022-08-07T16:02:04.334Z,40.96
2022-08-07T16:08:30.536Z,41.50
2022-08-07T16:13:05.382Z,42.85
2022-08-07T16:18:50.759Z,42.79
2022-08-07T16:24:35.106Z,42.42
2022-08-07T16:30:11.001Z,42.02
2022-08-07T16:35:58.886Z,42.12
2022-08-07T16:41:41.740Z,42.03
2022-08-07T16:47:45.235Z,42.22
2022-08-07T16:54:02.907Z,42.69
2022-08-07T16:59:15.277Z,42.57
2022-08-07T17:04:35.061Z,42.51
2022-08-07T17:10:08.199Z,44.42
2022-08-07T17:15:13.099Z,43.81
2022-08-07T17:20:40.527Z,44.61
2022-08-07T17:25:52.893Z,44.16
2022-08-07T17:30:59.485Z,44.39
2022-08-07T17:36:19.924Z,44.55
2022-08-07T17:42:02.041Z,45.15
2022-08-07T17:47:16.934Z,44.86
2022-08-07T17:52:46.542Z,46.62
2022-08-07T17:58:01.639Z,46.11
2022-08-07T18:03:18.113Z,46.16
2022-08-07T18:08:27.453Z,46.65
2022-08-07T18:14:10.105Z,48.07
2022-08-07T18:21:12.640Z,47.97
2022-08-07T18:24:51.456Z,48.02
2022-08-07T18:30:31.377Z,48.10
2022-08-07T18:35:51.959Z,48.18
2022-08-07T18:41:09.345Z,50.23
2022-08-07T18:46:27.755Z,51.28
2022-08-07T18:52:35.135Z,52.84
2022-08-07T18:57:29.659Z,54.34
2022-08-07T19:03:16.553Z,51.93
2022-08-07T19:08:33.068Z,51.46
2022-08-07T19:14:11.708Z,51.74
2022-08-07T19:19:48.761Z,52.33
2022-08-07T19:24:52.200Z,52.16
2022-08-07T19:31:05.678Z,53.00
2022-08-07T19:35:26.088Z,52.61
2022-08-07T19:40:35.956Z,53.12
2022-08-07T19:46:04.816Z,53.29
2022-08-07T19:51:19.993Z,53.89
2022-08-07T19:58:01.917Z,53.81
2022-08-07T20:01:57.862Z,53.77
2022-08-07T20:06:59.986Z,54.19
2022-08-07T20:12:34.922Z,53.99
2022-08-07T20:17:31.890Z,54.24
2022-08-07T20:22:45.339Z,54.49
2022-08-07T20:27:58.050Z,54.86
2022-08-07T20:33:03.936Z,55.22
2022-08-07T20:38:07.067Z,55.66
2022-08-07T20:43:19.382Z,56.20
2022-08-07T20:48:30.327Z,57.72
2022-08-07T20:54:03.141Z,57.33
2022-08-07T20:59:03.609Z,57.38
2022-08-07T21:04:22.947Z,56.76
2022-08-07T21:09:51.520Z,57.64
2022-08-07T21:14:56.215Z,57.41
2022-08-07T21:20:04.869Z,56.89
2022-08-07T21:25:19.484Z,57.32
2022-08-07T21:30:31.274Z,57.67
2022-08-07T21:36:31.205Z,58.47
2022-08-07T21:42:00.530Z,57.09
2022-08-07T21:47:12.340Z,56.06
2022-08-07T21:52:55.664Z,57.26
2022-08-07T21:58:12.265Z,57.37
2022-08-07T22:03:47.229Z,57.90
2022-08-07T22:08:55.224Z,58.10
2022-08-07T22:13:59.330Z,58.00
2022-08-07T22:19:08.174Z,57.85
2022-08-07T22:24:16.725Z,58.67
2022-08-07T22:29:48.407Z,59.22
2022-08-07T22:34:56.059Z,59.10
2022-08-07T22:40:17.337Z,59.28
2022-08-07T22:46:21.280Z,58.89
2022-08-07T22:51:14.670Z,66.05
2022-08-07T22:56:28.777Z,64.13
2022-08-07T23:01:49.336Z,62.83
2022-08-07T23:07:33.634Z,55.56
2022-08-07T23:12:54.894Z,53.58
2022-08-07T23:18:05.467Z,55.03
2022-08-07T23:24:06.426Z,55.68
2022-08-07T23:29:43.540Z,56.09
2022-08-07T23:35:06.692Z,56.86
2022-08-07T23:40:14.187Z,57.68
2022-08-07T23:46:01.726Z,58.38
2022-08-07T23:50:54.567Z,58.91
2022-08-07T23:56:13.757Z,59.51
